sensor_id;sensor_type;location;lat;lon;timestamp;temperature;humidity
74220;DHT22;62580;54.416;11.120;2022-09-13T00:03:49;21.90;62.00
74220;DHT22;62580;54.416;11.120;2022-09-13T00:13:50;21.90;61.90
74220;DHT22;62580;54.416;11.120;2022-09-13T00:23:53;21.90;62.00
74220;DHT22;62580;54.416;11.120;2022-09-13T00:33:54;21.90;61.90
74220;DHT22;62580;54.416;11.120;2022-09-13T00:43:58;21.90;61.90
74220;DHT22;62580;54.416;11.120;2022-09-13T00:54:00;21.90;61.90
74220;DHT22;62580;54.416;11.120;2022-09-13T01:04:04;21.80;61.90
74220;DHT22;62580;54.416;11.120;2022-09-13T01:14:06;21.80;61.80
74220;DHT22;62580;54.416;11.120;2022-09-13T01:34:47;21.90;61.80
74220;DHT22;62580;54.416;11.120;2022-09-13T01:45:01;21.80;61.80
74220;DHT22;62580;54.416;11.120;2022-09-13T01:55:09;21.80;61.80
74220;DHT22;62580;54.416;11.120;2022-09-13T02:05:16;21.80;61.70
74220;DHT22;62580;54.416;11.120;2022-09-13T02:15:22;21.80;61.70
74220;DHT22;62580;54.416;11.120;2022-09-13T02:25:24;21.80;61.80
74220;DHT22;62580;54.416;11.120;2022-09-13T02:35:33;21.80;61.70
74220;DHT22;62580;54.416;11.120;2022-09-13T02:45:41;21.80;61.70
74220;DHT22;62580;54.416;11.120;2022-09-13T02:55:50;21.80;61.70
74220;DHT22;62580;54.416;11.120;2022-09-13T03:05:52;21.80;61.60
74220;DHT22;62580;54.416;11.120;2022-09-13T03:16:02;21.80;61.70
74220;DHT22;62580;54.416;11.120;2022-09-13T03:26:25;21.80;61.70
74220;DHT22;62580;54.416;11.120;2022-09-13T03:36:34;21.80;61.60
74220;DHT22;62580;54.416;11.120;2022-09-13T03:46:38;21.80;61.60
74220;DHT22;62580;54.416;11.120;2022-09-13T03:56:41;21.70;61.60
74220;DHT22;62580;54.416;11.120;2022-09-13T04:06:48;21.70;61.50
74220;DHT22;62580;54.416;11.120;2022-09-13T04:16:50;21.80;61.70
74220;DHT22;62580;54.416;11.120;2022-09-13T04:26:51;21.70;61.40
74220;DHT22;62580;54.416;11.120;2022-09-13T04:36:53;21.70;61.40
74220;DHT22;62580;54.416;11.120;2022-09-13T04:46:53;21.70;61.40
74220;DHT22;62580;54.416;11.120;2022-09-13T04:56:55;21.70;61.40
74220;DHT22;62580;54.416;11.120;2022-09-13T05:06:56;21.70;61.40
74220;DHT22;62580;54.416;11.120;2022-09-13T05:16:58;21.70;61.40
74220;DHT22;62580;54.416;11.120;2022-09-13T05:26:59;21.70;61.30
74220;DHT22;62580;54.416;11.120;2022-09-13T05:37:01;21.70;61.30
74220;DHT22;62580;54.416;11.120;2022-09-13T05:47:01;21.70;61.30
74220;DHT22;62580;54.416;11.120;2022-09-13T05:57:04;21.70;61.30
74220;DHT22;62580;54.416;11.120;2022-09-13T06:07:04;21.70;61.30
74220;DHT22;62580;54.416;11.120;2022-09-13T06:17:06;21.70;61.20
74220;DHT22;62580;54.416;11.120;2022-09-13T06:27:07;21.70;61.30
74220;DHT22;62580;54.416;11.120;2022-09-13T06:37:09;21.70;61.30
74220;DHT22;62580;54.416;11.120;2022-09-13T06:47:09;21.70;61.30
74220;DHT22;62580;54.416;11.120;2022-09-13T06:57:11;21.70;61.20
74220;DHT22;62580;54.416;11.120;2022-09-13T07:07:12;21.70;61.20
74220;DHT22;62580;54.416;11.120;2022-09-13T07:17:14;21.70;61.20
74220;DHT22;62580;54.416;11.120;2022-09-13T07:27:15;21.70;61.30
74220;DHT22;62580;54.416;11.120;2022-09-13T07:37:18;21.70;61.20
74220;DHT22;62580;54.416;11.120;2022-09-13T07:47:18;21.70;61.20
74220;DHT22;62580;54.416;11.120;2022-09-13T07:57:20;21.70;61.10
74220;DHT22;62580;54.416;11.120;2022-09-13T08:07:21;21.70;61.20
74220;DHT22;62580;54.416;11.120;2022-09-13T08:17:23;21.80;61.10
74220;DHT22;62580;54.416;11.120;2022-09-13T08:27:24;21.70;61.00
74220;DHT22;62580;54.416;11.120;2022-09-13T08:37:26;21.70;61.00
74220;DHT22;62580;54.416;11.120;2022-09-13T08:47:34;21.80;61.20
74220;DHT22;62580;54.416;11.120;2022-09-13T08:57:44;21.70;61.10
74220;DHT22;62580;54.416;11.120;2022-09-13T09:07:48;21.70;61.00
74220;DHT22;62580;54.416;11.120;2022-09-13T09:17:58;21.80;61.00
74220;DHT22;62580;54.416;11.120;2022-09-13T09:28:08;21.80;61.00
74220;DHT22;62580;54.416;11.120;2022-09-13T09:38:22;21.80;60.90
74220;DHT22;62580;54.416;11.120;2022-09-13T09:48:28;21.80;60.70
74220;DHT22;62580;54.416;11.120;2022-09-13T09:58:38;21.80;60.70
74220;DHT22;62580;54.416;11.120;2022-09-13T10:08:40;21.80;60.70
74220;DHT22;62580;54.416;11.120;2022-09-13T10:18:43;21.90;60.70
74220;DHT22;62580;54.416;11.120;2022-09-13T10:28:45;21.90;60.70
74220;DHT22;62580;54.416;11.120;2022-09-13T10:38:57;21.90;60.60
74220;DHT22;62580;54.416;11.120;2022-09-13T10:48:59;21.90;60.60
74220;DHT22;62580;54.416;11.120;2022-09-13T10:59:14;21.90;60.60
74220;DHT22;62580;54.416;11.120;2022-09-13T11:09:19;22.00;60.60
74220;DHT22;62580;54.416;11.120;2022-09-13T11:19:44;21.90;60.60
74220;DHT22;62580;54.416;11.120;2022-09-13T11:30:07;22.00;60.50
74220;DHT22;62580;54.416;11.120;2022-09-13T11:40:30;22.00;60.40
74220;DHT22;62580;54.416;11.120;2022-09-13T11:50:35;22.10;60.40
74220;DHT22;62580;54.416;11.120;2022-09-13T12:00:42;22.10;60.40
74220;DHT22;62580;54.416;11.120;2022-09-13T12:10:47;22.10;60.30
74220;DHT22;62580;54.416;11.120;2022-09-13T12:20:51;22.20;60.40
74220;DHT22;62580;54.416;11.120;2022-09-13T12:30:55;22.20;60.30
74220;DHT22;62580;54.416;11.120;2022-09-13T12:41:11;22.20;60.40
74220;DHT22;62580;54.416;11.120;2022-09-13T12:51:23;22.10;60.40
74220;DHT22;62580;54.416;11.120;2022-09-13T13:01:31;22.10;60.50
74220;DHT22;62580;54.416;11.120;2022-09-13T13:11:43;22.10;60.50
74220;DHT22;62580;54.416;11.120;2022-09-13T13:21:47;22.10;60.40
74220;DHT22;62580;54.416;11.120;2022-09-13T13:32:10;22.20;60.40
74220;DHT22;62580;54.416;11.120;2022-09-13T13:42:23;22.20;60.30
74220;DHT22;62580;54.416;11.120;2022-09-13T13:52:37;22.20;60.40
74220;DHT22;62580;54.416;11.120;2022-09-13T14:02:44;22.20;60.30
74220;DHT22;62580;54.416;11.120;2022-09-13T14:13:19;22.20;60.30
74220;DHT22;62580;54.416;11.120;2022-09-13T14:23:25;22.30;60.20
74220;DHT22;62580;54.416;11.120;2022-09-13T14:33:27;22.30;60.40
74220;DHT22;62580;54.416;11.120;2022-09-13T14:43:30;22.30;60.30
74220;DHT22;62580;54.416;11.120;2022-09-13T14:53:33;22.30;60.30
74220;DHT22;62580;54.416;11.120;2022-09-13T15:03:36;22.30;60.30
74220;DHT22;62580;54.416;11.120;2022-09-13T15:13:40;22.30;60.30
74220;DHT22;62580;54.416;11.120;2022-09-13T15:23:48;22.40;60.40
74220;DHT22;62580;54.416;11.120;2022-09-13T15:34:10;22.40;60.30
74220;DHT22;62580;54.416;11.120;2022-09-13T15:44:12;22.40;60.30
74220;DHT22;62580;54.416;11.120;2022-09-13T15:54:15;22.40;60.60
74220;DHT22;62580;54.416;11.120;2022-09-13T16:04:17;22.30;60.50
74220;DHT22;62580;54.416;11.120;2022-09-13T16:14:18;22.40;60.60
74220;DHT22;62580;54.416;11.120;2022-09-13T16:24:20;22.40;60.60
74220;DHT22;62580;54.416;11.120;2022-09-13T16:34:21;22.40;60.60
74220;DHT22;62580;54.416;11.120;2022-09-13T16:44:23;22.40;60.60
74220;DHT22;62580;54.416;11.120;2022-09-13T16:54:24;22.30;60.60
74220;DHT22;62580;54.416;11.120;2022-09-13T17:04:26;22.30;60.70
74220;DHT22;62580;54.416;11.120;2022-09-13T17:14:27;22.30;60.60
74220;DHT22;62580;54.416;11.120;2022-09-13T17:24:29;22.30;60.60
74220;DHT22;62580;54.416;11.120;2022-09-13T17:34:30;22.30;60.50
74220;DHT22;62580;54.416;11.120;2022-09-13T17:44:32;22.30;60.50
74220;DHT22;62580;54.416;11.120;2022-09-13T17:54:33;22.30;60.50
74220;DHT22;62580;54.416;11.120;2022-09-13T18:04:35;22.30;60.50
74220;DHT22;62580;54.416;11.120;2022-09-13T18:14:36;22.30;60.50
74220;DHT22;62580;54.416;11.120;2022-09-13T18:24:38;22.30;60.50
74220;DHT22;62580;54.416;11.120;2022-09-13T18:34:38;22.30;60.40
74220;DHT22;62580;54.416;11.120;2022-09-13T18:44:40;22.20;60.30
74220;DHT22;62580;54.416;11.120;2022-09-13T18:54:41;22.20;60.30
74220;DHT22;62580;54.416;11.120;2022-09-13T19:04:43;22.20;60.40
74220;DHT22;62580;54.416;11.120;2022-09-13T19:14:44;22.20;60.30
74220;DHT22;62580;54.416;11.120;2022-09-13T19:24:46;22.20;60.30
74220;DHT22;62580;54.416;11.120;2022-09-13T19:34:47;22.20;60.30
74220;DHT22;62580;54.416;11.120;2022-09-13T19:44:49;22.20;60.40
74220;DHT22;62580;54.416;11.120;2022-09-13T19:54:49;22.20;60.40
74220;DHT22;62580;54.416;11.120;2022-09-13T20:04:51;22.20;60.30
74220;DHT22;62580;54.416;11.120;2022-09-13T20:14:52;22.20;60.30
74220;DHT22;62580;54.416;11.120;2022-09-13T20:24:54;22.20;60.30
74220;DHT22;62580;54.416;11.120;2022-09-13T20:34:54;22.10;60.20
74220;DHT22;62580;54.416;11.120;2022-09-13T20:44:56;22.20;60.30
74220;DHT22;62580;54.416;11.120;2022-09-13T20:54:57;22.20;60.30
74220;DHT22;62580;54.416;11.120;2022-09-13T21:04:59;22.10;60.20
74220;DHT22;62580;54.416;11.120;2022-09-13T21:15:00;22.10;60.30
74220;DHT22;62580;54.416;11.120;2022-09-13T21:25:02;22.10;60.30
74220;DHT22;62580;54.416;11.120;2022-09-13T21:35:04;22.10;60.20
74220;DHT22;62580;54.416;11.120;2022-09-13T21:45:07;22.10;60.20
74220;DHT22;62580;54.416;11.120;2022-09-13T21:55:08;22.10;60.20
74220;DHT22;62580;54.416;11.120;2022-09-13T22:05:10;22.10;60.20
74220;DHT22;62580;54.416;11.120;2022-09-13T22:15:11;22.10;60.20
74220;DHT22;62580;54.416;11.120;2022-09-13T22:25:13;22.10;60.20
74220;DHT22;62580;54.416;11.120;2022-09-13T22:35:14;22.10;60.10
74220;DHT22;62580;54.416;11.120;2022-09-13T22:45:16;22.10;60.20
74220;DHT22;62580;54.416;11.120;2022-09-13T22:55:17;22.10;60.10
74220;DHT22;62580;54.416;11.120;2022-09-13T23:05:19;22.10;60.10
74220;DHT22;62580;54.416;11.120;2022-09-13T23:15:19;22.10;60.10
74220;DHT22;62580;54.416;11.120;2022-09-13T23:25:21;22.10;60.20
74220;DHT22;62580;54.416;11.120;2022-09-13T23:35:22;22.10;60.10
74220;DHT22;62580;54.416;11.120;2022-09-13T23:45:24;22.10;60.10
74220;DHT22;62580;54.416;11.120;2022-09-13T23:55:25;22.00;60.00
